Atlantic Elm — 9HA3054 — position and weather

sailwx.info

Track history (hours):
 
Tides and Currents Weather Stations Pressure Air Temp Water Temp Dewpoint Dewpoint Depression Visibility Wind Speed Wind Dir Waves Ship Positions

Atlantic Elm

Last reported at 2014-Sep-22 16:16 UTC. Time now 2014-Sep-23 02:18 UTC.
Position N 39°29' E 025°39'.

Length 190 m; draft 6.6 m.

Type: Cargo ship. MMSI: 229081000.

Date/timePositionNaut miles runAvg speedWind from/ knotsBaromVisibWave heightAir tempDewpointWater temp
2014-Sep-22 16:16N 39°29' E 025°39'10112.7
2014-Sep-22 08:21N 37°48' E 025°40'1113.2
2014-Sep-22 07:30N 37°38' E 025°45'1213.1
2014-Sep-22 06:33N 37°26' E 025°51'1312.6
2014-Sep-22 05:33N 37°15' E 025°59'1312.6
2014-Sep-22 04:33N 37°04' E 026°07'1211.8
2014-Sep-22 03:33N 36°55' E 026°16'1212.3
2014-Sep-22 02:33N 36°46' E 026°26'1512.4
2014-Sep-22 01:20N 36°34' E 026°38'1412.6
2014-Sep-22 00:13N 36°24' E 026°51'812.3
2014-Sep-21 23:33N 36°19' E 026°58'  
2014-Sep-12 23:13N 35°46' E 032°53'  
Track history (hours):
 
Tides and Currents Weather Stations Pressure Air Temp Water Temp Dewpoint Dewpoint Depression Visibility Wind Speed Wind Dir Waves Ship Positions

Atlantic Elm

Last reported at 2014-Sep-22 16:16 UTC. Time now 2014-Sep-23 02:18 UTC.
Position N 39°29' E 025°39'.

Length 190 m; draft 6.6 m.

Type: Cargo ship. MMSI: 229081000.

Date/timePositionNaut miles runAvg speedWind from/ knotsBaromVisibWave heightAir tempDewpointWater temp
2014-Sep-22 16:16N 39°29' E 025°39'10112.7
2014-Sep-22 08:21N 37°48' E 025°40'1113.2
2014-Sep-22 07:30N 37°38' E 025°45'1213.1
2014-Sep-22 06:33N 37°26' E 025°51'1312.6
2014-Sep-22 05:33N 37°15' E 025°59'1312.6
2014-Sep-22 04:33N 37°04' E 026°07'1211.8
2014-Sep-22 03:33N 36°55' E 026°16'1212.3
2014-Sep-22 02:33N 36°46' E 026°26'1512.4
2014-Sep-22 01:20N 36°34' E 026°38'1412.6
2014-Sep-22 00:13N 36°24' E 026°51'812.3
2014-Sep-21 23:33N 36°19' E 026°58'  
2014-Sep-12 23:13N 35°46' E 032°53'  

Dump ship's entire track history